Time;durP1;ratioP1;P1;durP2;ratioP2;P2;SDS_P1;SDS_P2;PMS_P1;PMS_P2;Temp;Humidity;BMP_temperature;BMP_pressure;BME280_temperature;BME280_humidity;BME280_pressure;Samples;Min_cycle;Max_cycle;Signal;HPM_P1;HPM_P2
2022/09/03 04:12:08;;;;;;;;;;;;;;;20.49;75.13;96668.91;4195249;27;10450;-69
2022/09/03 04:14:11;;;;;;;;;;;;;;;20.78;73.91;96650.56;4197935;28;5781;-70
2022/09/03 04:16:17;;;;;;;;;;;;;;;21.01;73.86;96660.06;4197727;28;5801;-69
2022/09/03 04:18:20;;;;;;;;;;;;;;;21.18;72.98;96661.50;4198063;28;5711;-69
2022/09/03 04:20:23;;;;;;;;;;;;;;;21.30;72.63;96652.41;4186493;28;5792;-69
2022/09/03 04:22:28;;;;;;;;;;;;;;;21.40;72.36;96647.03;4183842;28;5714;-69
2022/09/03 04:24:31;;;;;;;;;;;;;;;21.48;72.22;96644.63;4197061;28;5790;-69
2022/09/03 04:26:34;;;;;;;;;;;;;;;21.57;71.65;96636.06;4197789;28;5805;-69
2022/09/03 04:28:40;;;;;;;;;;;;;;;21.64;71.67;96633.94;4196867;28;5810;-69
2022/09/03 04:30:43;;;;;;;;;;;;;;;21.69;71.66;96650.06;4196511;28;5806;-69
2022/09/03 04:32:53;;;;;;;;;;;;;;;21.71;71.24;96651.41;4196729;28;5734;-68
2022/09/03 04:34:56;;;;;;;;;;;;;;;21.75;71.25;96654.38;4196571;28;5747;-69
2022/09/03 04:36:59;;;;;;;;;;;;;;;21.75;70.91;96638.25;4196267;28;5789;-70
2022/09/03 04:39:02;;;;;;;;;;;;;;;21.80;70.82;96647.13;4196849;28;5710;-69
2022/09/03 04:41:06;;;;;;;;;;;;;;;21.82;70.96;96644.16;4196967;28;5718;-69
2022/09/03 04:43:09;;;;;;;;;;;;;;;21.84;70.81;96647.38;4196761;28;5734;-69
2022/09/03 04:45:17;;;;;;;;;;;;;;;21.84;70.59;96646.56;4196533;28;5710;-69
2022/09/03 04:47:20;;;;;;;;;;;;;;;21.85;70.35;96654.38;4196626;28;5707;-69
2022/09/03 04:49:23;;;;;;;;;;;;;;;21.88;70.54;96659.25;4196341;28;5897;-70
2022/09/03 04:51:29;;;;;;;;;;;;;;;21.91;70.29;96653.31;4197148;28;5718;-70
2022/09/03 04:53:33;;;;;;;;;;;;;;;21.95;70.30;96648.19;4196907;28;5766;-70
2022/09/03 04:55:38;;;;;;;;;;;;;;;21.97;69.68;96646.88;4195273;28;5743;-70
2022/09/03 04:57:41;;;;;;;;;;;;;;;21.99;69.90;96635.81;4197370;28;5588;-70
2022/09/03 04:59:44;;;;;;;;;;;;;;;21.99;69.99;96625.88;4192274;28;5739;-69
2022/09/03 05:01:51;;;;;;;;;;;;;;;22.00;69.80;96605.94;4179741;28;5811;-69
2022/09/03 05:03:54;;;;;;;;;;;;;;;22.02;69.42;96598.41;4193175;28;5845;-69
2022/09/03 05:05:58;;;;;;;;;;;;;;;22.03;69.15;96597.31;4196245;28;5813;-69
2022/09/03 05:08:01;;;;;;;;;;;;;;;22.03;69.46;96601.91;4196557;28;5714;-70
2022/09/03 05:10:19;;;;;;;;;;;;;;;22.00;69.10;96597.88;4195889;28;5718;-69
2022/09/03 05:12:22;;;;;;;;;;;;;;;21.99;69.23;96590.88;4210895;28;5605;-70
2022/09/03 05:14:25;;;;;;;;;;;;;;;21.99;69.53;96580.13;4197287;28;7046;-70
2022/09/03 05:16:29;;;;;;;;;;;;;;;21.99;69.03;96584.69;4201226;28;5697;-70
2022/09/03 05:18:35;;;;;;;;;;;;;;;21.98;69.08;96586.56;4202312;28;5796;-70
2022/09/03 05:20:38;;;;;;;;;;;;;;;21.99;69.38;96590.88;4205440;28;5625;-69
2022/09/03 05:22:41;;;;;;;;;;;;;;;22.00;69.03;96591.69;4217970;28;5750;-69
2022/09/03 05:24:44;;;;;;;;;;;;;;;22.00;68.99;96587.09;4211031;28;5765;-69
2022/09/03 05:26:47;;;;;;;;;;;;;;;22.00;68.86;96587.09;4202380;28;5649;-69
2022/09/03 05:28:54;;;;;;;;;;;;;;;22.00;68.74;96589.81;4200971;28;5741;-70
2022/09/03 05:31:00;;;;;;;;;;;;;;;22.02;68.78;96595.72;4201418;28;5642;-70
2022/09/03 05:33:04;;;;;;;;;;;;;;;22.02;69.00;96595.72;4201306;28;5757;-70
2022/09/03 05:35:11;;;;;;;;;;;;;;;22.02;68.68;96590.34;4201205;28;5662;-70
2022/09/03 05:37:13;;;;;;;;;;;;;;;22.05;68.71;96594.34;4201169;28;5765;-70
2022/09/03 05:39:16;;;;;;;;;;;;;;;22.07;68.82;96606.50;4200311;28;5635;-70
2022/09/03 05:41:20;;;;;;;;;;;;;;;22.11;68.27;96601.41;4201212;28;5626;-70
2022/09/03 05:43:24;;;;;;;;;;;;;;;22.14;68.51;96586.56;4202560;28;5717;-70
2022/09/03 05:45:28;;;;;;;;;;;;;;;22.15;68.36;96588.19;4182750;28;5703;-70
2022/09/03 05:47:31;;;;;;;;;;;;;;;22.18;68.52;96582.25;4195609;28;5650;-70
2022/09/03 05:49:34;;;;;;;;;;;;;;;22.19;68.50;96583.88;4190323;28;5686;-70
2022/09/03 05:51:39;;;;;;;;;;;;;;;22.22;68.50;96589.53;4202205;28;5633;-70
2022/09/03 05:53:43;;;;;;;;;;;;;;;22.27;68.43;96594.09;4201636;28;5658;-71
2022/09/03 05:55:54;;;;;;;;;;;;;;;22.32;68.04;96599.47;4185588;28;5661;-70
2022/09/03 05:57:57;;;;;;;;;;;;;;;22.38;68.02;96598.38;4199857;28;5729;-70
2022/09/03 06:00:00;;;;;;;;;;;;;;;22.41;68.36;96603.22;4200363;28;5626;-71
2022/09/03 06:02:04;;;;;;;;;;;;;;;22.40;68.21;96607.00;4200211;28;5702;-70
2022/09/03 06:04:09;;;;;;;;;;;;;;;22.42;68.40;96604.81;4182676;28;5698;-70
2022/09/03 06:06:13;;;;;;;;;;;;;;;22.43;67.99;96593.00;4182709;28;5830;-70
2022/09/03 06:08:17;;;;;;;;;;;;;;;22.46;68.12;96599.72;4200721;28;5690;-70
2022/09/03 06:10:20;;;;;;;;;;;;;;;22.42;68.29;96580.56;4215062;28;5688;-71
2022/09/03 06:12:29;;;;;;;;;;;;;;;22.42;67.82;96587.84;4184133;28;5742;-71
2022/09/03 06:14:32;;;;;;;;;;;;;;;22.41;67.87;96584.34;4185311;28;5711;-70
2022/09/03 06:16:37;;;;;;;;;;;;;;;22.40;68.02;96598.91;4184888;28;5071;-70
2022/09/03 06:18:40;;;;;;;;;;;;;;;22.40;67.85;96604.28;4184972;28;5714;-70
2022/09/03 06:20:43;;;;;;;;;;;;;;;22.39;67.98;96621.53;4185002;28;5938;-70
2022/09/03 06:22:50;;;;;;;;;;;;;;;22.42;68.13;96652.50;4184775;28;5791;-70
2022/09/03 06:24:56;;;;;;;;;;;;;;;22.40;67.65;96663.53;4184409;28;5733;-69
2022/09/03 06:26:58;;;;;;;;;;;;;;;22.39;67.54;96656.53;4184955;28;5723;-70
2022/09/03 06:29:01;;;;;;;;;;;;;;;22.38;67.59;96646.84;4184715;28;5722;-69
2022/09/03 06:31:06;;;;;;;;;;;;;;;22.36;67.93;96660.59;4185212;28;5805;-70
2022/09/03 06:33:09;;;;;;;;;;;;;;;22.33;68.07;96677.31;4184323;28;6372;-70
2022/09/03 06:35:12;;;;;;;;;;;;;;;22.30;67.67;96680.50;4184788;28;5920;-70
2022/09/03 06:37:15;;;;;;;;;;;;;;;22.31;67.88;96646.31;4184854;28;5707;-70
2022/09/03 06:39:17;;;;;;;;;;;;;;;22.29;67.97;96605.38;4184696;28;5824;-70
2022/09/03 06:41:24;;;;;;;;;;;;;;;22.26;68.05;96595.19;4184804;28;5725;-70
2022/09/03 06:43:28;;;;;;;;;;;;;;;22.25;68.21;96604.34;4184868;28;5771;-69
2022/09/03 06:45:31;;;;;;;;;;;;;;;22.25;67.93;96598.94;4184806;28;5730;-69
2022/09/03 06:47:34;;;;;;;;;;;;;;;22.26;67.65;96600.56;4184321;28;5870;-70
2022/09/03 06:49:37;;;;;;;;;;;;;;;22.24;68.16;96608.09;4184689;28;5721;-70
2022/09/03 06:51:42;;;;;;;;;;;;;;;22.25;67.94;96601.63;4184481;28;5719;-70
2022/09/03 06:53:46;;;;;;;;;;;;;;;22.27;67.91;96592.19;4184460;28;5710;-69
2022/09/03 06:55:53;;;;;;;;;;;;;;;22.29;67.92;96611.59;4184765;28;5727;-69
2022/09/03 06:57:57;;;;;;;;;;;;;;;22.33;67.63;96619.94;4184403;28;5778;-69
2022/09/03 07:00:01;;;;;;;;;;;;;;;22.34;67.48;96635.03;4183366;28;5707;-70
2022/09/03 07:02:04;;;;;;;;;;;;;;;22.33;67.57;96649.56;4183788;28;5794;-70
2022/09/03 07:04:08;;;;;;;;;;;;;;;22.33;67.41;96671.13;4178991;28;5866;-70
2022/09/03 07:06:13;;;;;;;;;;;;;;;22.28;67.69;96666.53;4184361;28;6388;-70
2022/09/03 07:08:16;;;;;;;;;;;;;;;22.27;67.59;96646.06;4183792;28;5794;-70
2022/09/03 07:10:20;;;;;;;;;;;;;;;22.26;67.73;96627.47;4186095;28;5854;-70
2022/09/03 07:12:23;;;;;;;;;;;;;;;22.18;67.42;96644.19;4199863;28;5722;-70
2022/09/03 07:14:27;;;;;;;;;;;;;;;22.12;67.87;96647.97;4201017;28;5069;-70
2022/09/03 07:16:33;;;;;;;;;;;;;;;22.08;67.70;96653.91;4199883;28;5639;-70
2022/09/03 07:18:37;;;;;;;;;;;;;;;22.07;67.71;96667.59;4199696;28;6384;-69
2022/09/03 07:20:39;;;;;;;;;;;;;;;22.08;68.30;96669.22;4200418;28;6060;-70
2022/09/03 07:22:42;;;;;;;;;;;;;;;22.15;67.74;96674.34;4200602;28;5799;-67
2022/09/03 07:24:46;;;;;;;;;;;;;;;22.18;67.67;96665.72;4200585;28;5639;-70
2022/09/03 07:26:49;;;;;;;;;;;;;;;22.22;67.67;96648.78;4200552;28;5731;-68
2022/09/03 07:28:52;;;;;;;;;;;;;;;22.25;67.62;96658.19;4200847;28;5623;-70
2022/09/03 07:31:02;;;;;;;;;;;;;;;22.30;67.70;96661.66;4200462;28;5692;-69
2022/09/03 07:33:06;;;;;;;;;;;;;;;22.33;67.92;96663.84;4200427;28;5628;-68
2022/09/03 07:35:09;;;;;;;;;;;;;;;22.35;67.90;96677.03;4188596;28;5665;-69
2022/09/03 07:37:12;;;;;;;;;;;;;;;22.32;67.64;96673.00;4199204;28;5674;-69
2022/09/03 07:39:15;;;;;;;;;;;;;;;22.35;67.21;96668.94;4171179;28;5747;-69
2022/09/03 07:41:18;;;;;;;;;;;;;;;22.36;67.63;96670.56;4198589;28;5642;-69
2022/09/03 07:43:35;;;;;;;;;;;;;;;22.36;67.49;96670.56;4200414;28;5747;-69
2022/09/03 07:45:38;;;;;;;;;;;;;;;22.36;66.98;96675.94;4200242;28;5635;-69
2022/09/03 07:47:48;;;;;;;;;;;;;;;22.35;66.99;96675.13;4199978;28;5623;-70
2022/09/03 07:49:51;;;;;;;;;;;;;;;22.36;67.31;96710.97;4200594;28;5764;-70
2022/09/03 07:51:54;;;;;;;;;;;;;;;22.32;67.25;96710.69;4200581;28;5698;-70
2022/09/03 07:53:59;;;;;;;;;;;;;;;22.32;66.91;96691.03;4200163;28;5799;-69
2022/09/03 07:56:05;;;;;;;;;;;;;;;22.35;67.14;96706.66;4200396;28;5631;-69
2022/09/03 07:58:07;;;;;;;;;;;;;;;22.33;66.99;96703.44;4200183;28;5639;-70
2022/09/03 08:00:12;;;;;;;;;;;;;;;22.33;66.96;96708.81;4197901;28;5758;-69
2022/09/03 08:02:15;;;;;;;;;;;;;;;22.33;67.25;96708.81;4196650;28;5707;-69
2022/09/03 08:04:20;;;;;;;;;;;;;;;22.30;66.92;96703.94;4199571;28;5650;-69
2022/09/03 08:06:25;;;;;;;;;;;;;;;22.32;67.12;96715.28;4197751;28;5730;-70
2022/09/03 08:08:28;;;;;;;;;;;;;;;22.35;67.20;96712.84;4200130;28;5626;-69
2022/09/03 08:10:37;;;;;;;;;;;;;;;22.42;66.64;96719.81;4199970;28;5623;-69
2022/09/03 08:12:40;;;;;;;;;;;;;;;22.48;66.70;96716.88;4197812;28;5619;-69
2022/09/03 08:14:43;;;;;;;;;;;;;;;22.56;66.53;96715.53;4188607;28;5743;-69
2022/09/03 08:16:47;;;;;;;;;;;;;;;22.58;66.65;96724.16;4198625;28;5754;-69
2022/09/03 08:18:50;;;;;;;;;;;;;;;22.57;66.67;96727.91;4207906;28;5639;-70
2022/09/03 08:20:54;;;;;;;;;;;;;;;22.53;66.33;96730.31;4199345;28;5774;-69
2022/09/03 08:23:01;;;;;;;;;;;;;;;22.53;66.24;96726.81;4198967;28;5754;-70
2022/09/03 08:25:04;;;;;;;;;;;;;;;22.53;66.47;96724.94;4199975;28;5685;-69
2022/09/03 08:27:11;;;;;;;;;;;;;;;22.55;66.19;96722.81;4181944;28;5722;-69
2022/09/03 08:29:14;;;;;;;;;;;;;;;22.55;66.16;96720.13;4195153;28;5772;-70
2022/09/03 08:31:18;;;;;;;;;;;;;;;22.55;66.15;96722.00;4177456;28;5845;-70
2022/09/03 08:33:35;;;;;;;;;;;;;;;22.55;66.31;96717.41;4198974;28;5663;-69
2022/09/03 08:35:38;;;;;;;;;;;;;;;22.54;66.39;96741.94;4199738;28;5698;-69
2022/09/03 08:37:42;;;;;;;;;;;;;;;22.52;66.38;96750.25;4199942;28;5630;-68
2022/09/03 08:39:45;;;;;;;;;;;;;;;22.50;66.48;96749.72;4200137;28;5627;-69
2022/09/03 08:42:07;;;;;;;;;;;;;;;22.49;66.51;96752.69;4200056;28;6320;-69
2022/09/03 08:44:20;;;;;;;;;;;;;;;22.48;66.27;96759.97;4189648;28;5646;-69
2022/09/03 08:46:26;;;;;;;;;;;;;;;22.51;66.27;96759.44;4190760;28;5658;-69
2022/09/03 08:48:33;;;;;;;;;;;;;;;22.50;65.94;96763.19;4193004;28;5646;-69
2022/09/03 08:50:41;;;;;;;;;;;;;;;22.51;65.87;96767.50;4200050;28;5742;-69
2022/09/03 08:52:49;;;;;;;;;;;;;;;22.52;65.81;96765.63;4201181;28;5710;-69
2022/09/03 08:54:54;;;;;;;;;;;;;;;22.53;65.74;96746.50;4218295;28;5671;-69
2022/09/03 08:57:01;;;;;;;;;;;;;;;22.56;65.74;96751.34;4199636;28;5694;-69
2022/09/03 08:59:04;;;;;;;;;;;;;;;22.61;65.82;96745.94;4208467;28;5838;-69
2022/09/03 09:01:23;;;;;;;;;;;;;;;22.62;65.85;96750.25;4200856;28;5936;-69
2022/09/03 09:03:43;;;;;;;;;;;;;;;22.65;65.52;96755.13;4196771;28;5647;-69
2022/09/03 09:05:51;;;;;;;;;;;;;;;22.66;65.88;96764.81;4199426;28;5812;-69
2022/09/03 09:08:06;;;;;;;;;;;;;;;22.69;66.03;96760.78;4194261;28;5952;-70
2022/09/03 09:10:18;;;;;;;;;;;;;;;22.73;65.70;96766.41;4207893;28;5636;-69
2022/09/03 09:12:33;;;;;;;;;;;;;;;22.73;65.49;96771.81;4212221;28;5634;-70
2022/09/03 09:14:57;;;;;;;;;;;;;;;22.71;65.57;96765.88;4197511;28;5801;-70
2022/09/03 09:17:08;;;;;;;;;;;;;;;22.69;65.58;96766.16;4218201;28;6290;-70
2022/09/03 09:19:25;;;;;;;;;;;;;;;22.69;65.45;96770.75;4200765;28;5640;-71
2022/09/03 09:21:30;;;;;;;;;;;;;;;22.63;65.42;96773.44;4202389;28;5818;-70
2022/09/03 09:23:40;;;;;;;;;;;;;;;22.64;65.86;96758.88;4202094;28;5622;-70
2022/09/03 09:25:48;;;;;;;;;;;;;;;22.66;65.34;96764.03;4202953;28;5626;-70
2022/09/03 09:27:58;;;;;;;;;;;;;;;22.70;65.80;96766.97;4191619;28;5642;-70
2022/09/03 09:30:05;;;;;;;;;;;;;;;22.73;65.40;96763.72;4189950;28;5769;-69
2022/09/03 09:32:12;;;;;;;;;;;;;;;22.76;65.39;96769.38;4199816;28;5690;-70
2022/09/03 09:34:15;;;;;;;;;;;;;;;22.80;65.76;96745.41;4187922;28;5637;-70
2022/09/03 09:36:19;;;;;;;;;;;;;;;22.81;65.22;96749.72;4185695;28;5797;-70
2022/09/03 09:38:29;;;;;;;;;;;;;;;22.77;65.64;96746.75;4185651;28;5649;-70
2022/09/03 09:40:35;;;;;;;;;;;;;;;22.81;65.70;96738.94;4185838;28;5897;-71
2022/09/03 09:42:46;;;;;;;;;;;;;;;22.82;65.49;96737.84;4185617;28;7643;-70
2022/09/03 09:44:49;;;;;;;;;;;;;;;22.78;65.53;96734.09;4185376;28;5740;-71
2022/09/03 09:47:02;;;;;;;;;;;;;;;22.74;65.22;96757.25;4185387;28;5058;-70
2022/09/03 09:49:24;;;;;;;;;;;;;;;22.74;65.63;96765.34;4185695;28;5634;-71
2022/09/03 09:51:29;;;;;;;;;;;;;;;22.73;65.63;96786.09;4187195;28;5720;-70
2022/09/03 09:53:33;;;;;;;;;;;;;;;22.75;65.31;96799.28;4185428;28;5665;-70
2022/09/03 09:55:49;;;;;;;;;;;;;;;22.73;65.25;96814.94;4185360;28;5646;-69
2022/09/03 09:57:53;;;;;;;;;;;;;;;22.73;65.65;96817.63;4197393;28;5620;-71
2022/09/03 10:00:07;;;;;;;;;;;;;;;22.70;65.36;96799.31;4201536;28;5662;-70
2022/09/03 10:02:13;;;;;;;;;;;;;;;22.67;65.69;96782.59;4190093;28;5641;-70
2022/09/03 10:04:28;;;;;;;;;;;;;;;22.67;65.12;96774.53;4189626;28;5721;-70
2022/09/03 10:09:06;;;;;;;;;;;;;;;22.72;65.62;96775.59;4201512;28;6323;-71
2022/09/03 10:11:10;;;;;;;;;;;;;;;22.73;65.60;96778.00;4183331;28;5750;-71
2022/09/03 10:13:18;;;;;;;;;;;;;;;22.73;65.10;96780.69;4198485;28;5772;-72
2022/09/03 10:15:29;;;;;;;;;;;;;;;22.73;65.35;96782.59;4200948;28;5635;-71
2022/09/03 10:17:45;;;;;;;;;;;;;;;22.71;65.56;96787.44;4201209;28;5710;-71
2022/09/03 10:22:18;;;;;;;;;;;;;;;22.80;65.18;96777.75;4200647;28;5661;-71
2022/09/03 10:24:39;;;;;;;;;;;;;;;22.82;64.58;96776.38;4201277;28;5713;-71
2022/09/03 10:26:44;;;;;;;;;;;;;;;22.88;64.78;96769.16;4201892;28;5645;-71
2022/09/03 10:28:52;;;;;;;;;;;;;;;22.88;64.37;96763.75;4201093;28;5637;-71
2022/09/03 10:31:30;;;;;;;;;;;;;;;22.86;64.31;96764.00;4201309;28;5779;-71
2022/09/03 10:33:38;;;;;;;;;;;;;;;22.89;64.64;96762.69;4201115;28;5752;-71
2022/09/03 10:35:46;;;;;;;;;;;;;;;22.91;64.61;96753.22;4187604;28;5623;-71
2022/09/03 10:37:53;;;;;;;;;;;;;;;22.97;64.40;96756.72;4200830;28;5651;-69
2022/09/03 10:40:11;;;;;;;;;;;;;;;23.05;64.35;96763.44;4201401;28;6341;-70
2022/09/03 10:42:33;;;;;;;;;;;;;;;23.13;63.83;96765.59;4200972;28;5701;-70
2022/09/03 10:44:54;;;;;;;;;;;;;;;23.16;64.08;96765.03;4201293;28;5622;-71
2022/09/03 10:47:10;;;;;;;;;;;;;;;23.19;63.91;96767.16;4184549;28;6224;-70
2022/09/03 10:49:26;;;;;;;;;;;;;;;23.24;63.61;96770.69;4184896;28;6327;-70
2022/09/03 10:51:35;;;;;;;;;;;;;;;23.28;63.76;96767.44;4186698;28;5641;-71
2022/09/03 10:53:50;;;;;;;;;;;;;;;23.30;63.30;96760.66;4184799;28;5709;-70
2022/09/03 10:56:00;;;;;;;;;;;;;;;23.31;63.25;96772.25;4184744;28;5657;-70
2022/09/03 10:58:16;;;;;;;;;;;;;;;23.35;63.48;96773.34;4166426;28;5735;-70
2022/09/03 11:00:21;;;;;;;;;;;;;;;23.37;63.47;96763.88;4184329;28;5765;-70
2022/09/03 11:02:57;;;;;;;;;;;;;;;23.43;62.90;96764.66;4200608;28;5638;-70
2022/09/03 11:05:04;;;;;;;;;;;;;;;23.46;63.25;96770.34;4182757;28;5746;-70
2022/09/03 11:07:13;;;;;;;;;;;;;;;23.48;62.94;96764.66;4200886;28;5638;-70
2022/09/03 11:09:22;;;;;;;;;;;;;;;23.50;62.77;96759.78;4200610;28;5623;-70
2022/09/03 11:11:31;;;;;;;;;;;;;;;23.52;62.46;96758.44;4200031;28;5081;-70
2022/09/03 11:13:41;;;;;;;;;;;;;;;23.54;62.86;96758.94;4200474;28;5709;-70
2022/09/03 11:15:50;;;;;;;;;;;;;;;23.56;62.17;96756.00;4200816;28;5808;-70
2022/09/03 11:17:58;;;;;;;;;;;;;;;23.54;62.50;96745.47;4200535;28;5772;-70
2022/09/03 11:20:11;;;;;;;;;;;;;;;23.49;62.01;96750.88;4200639;28;5704;-71
2022/09/03 11:22:17;;;;;;;;;;;;;;;23.46;62.17;96753.34;4200851;28;5783;-72
2022/09/03 11:24:26;;;;;;;;;;;;;;;23.48;62.21;96740.38;4200692;28;5709;-70
2022/09/03 11:26:30;;;;;;;;;;;;;;;23.46;61.74;96742.56;4200942;28;5245;-70
2022/09/03 11:28:44;;;;;;;;;;;;;;;23.43;61.84;96743.09;4200521;28;5701;-70
2022/09/03 11:31:01;;;;;;;;;;;;;;;23.42;62.22;96741.47;4200235;28;5882;-71
2022/09/03 11:33:08;;;;;;;;;;;;;;;23.43;62.04;96748.47;4200223;28;5787;-71
2022/09/03 11:35:17;;;;;;;;;;;;;;;23.45;61.77;96740.94;4200262;28;5681;-71
2022/09/03 11:37:25;;;;;;;;;;;;;;;23.50;61.50;96730.91;4200156;28;5627;-71
2022/09/03 11:39:35;;;;;;;;;;;;;;;23.55;61.68;96727.38;4200308;28;5702;-71
2022/09/03 11:41:38;;;;;;;;;;;;;;;23.55;61.67;96727.38;4200682;28;5615;-71
2022/09/03 11:43:44;;;;;;;;;;;;;;;23.51;61.14;96729.84;4200611;28;5615;-70
2022/09/03 11:45:47;;;;;;;;;;;;;;;23.53;61.29;96724.16;4206337;28;6391;-70
2022/09/03 11:47:51;;;;;;;;;;;;;;;23.49;61.02;96726.59;4216823;28;5605;-70
2022/09/03 11:50:07;;;;;;;;;;;;;;;23.46;61.41;96718.28;4216865;28;5828;-70
2022/09/03 11:52:11;;;;;;;;;;;;;;;23.43;61.02;96718.81;4214309;28;5675;-67
2022/09/03 11:54:25;;;;;;;;;;;;;;;23.45;60.89;96714.78;4217113;28;5696;-70
2022/09/03 11:56:29;;;;;;;;;;;;;;;23.49;60.77;96715.00;4217167;28;5632;-70
2022/09/03 11:58:33;;;;;;;;;;;;;;;23.49;60.68;96709.63;4207063;28;6313;-68
2022/09/03 12:00:43;;;;;;;;;;;;;;;23.48;60.66;96705.31;4189200;28;5694;-69
2022/09/03 12:02:50;;;;;;;;;;;;;;;23.51;60.51;96710.94;4185135;28;5646;-69
2022/09/03 12:05:15;;;;;;;;;;;;;;;23.53;60.47;96710.66;4183286;28;6331;-68
2022/09/03 12:07:41;;;;;;;;;;;;;;;23.59;60.60;96706.91;4183512;28;6335;-68
2022/09/03 12:10:08;;;;;;;;;;;;;;;23.62;60.46;96698.25;4165390;28;5668;-70
2022/09/03 12:12:26;;;;;;;;;;;;;;;23.63;60.65;96704.44;4189076;28;5737;-69
2022/09/03 12:14:35;;;;;;;;;;;;;;;23.60;60.21;96708.50;4216915;28;5783;-69
2022/09/03 12:17:04;;;;;;;;;;;;;;;23.60;60.53;96702.31;4216525;28;6550;-69
2022/09/03 12:19:15;;;;;;;;;;;;;;;23.63;60.25;96693.66;4216758;28;5729;-69
2022/09/03 12:21:18;;;;;;;;;;;;;;;23.71;60.26;96698.47;4217148;28;5720;-70
2022/09/03 12:23:28;;;;;;;;;;;;;;;23.78;60.07;96690.84;4219876;28;5731;-69
2022/09/03 12:25:32;;;;;;;;;;;;;;;23.82;60.19;96686.53;4220312;28;5728;-69
2022/09/03 12:27:34;;;;;;;;;;;;;;;23.84;60.24;96689.75;4220336;28;5717;-68
2022/09/03 12:29:39;;;;;;;;;;;;;;;23.86;59.89;96686.75;4219857;28;6398;-69
2022/09/03 12:31:46;;;;;;;;;;;;;;;23.86;59.79;96687.56;4219949;28;5738;-69
2022/09/03 12:33:53;;;;;;;;;;;;;;;23.86;59.69;96676.75;4220111;28;5737;-69
2022/09/03 12:35:57;;;;;;;;;;;;;;;23.86;59.70;96684.06;4220191;28;5736;-69
2022/09/03 12:38:01;;;;;;;;;;;;;;;23.88;60.10;96690.78;4220073;28;5822;-69
2022/09/03 12:40:18;;;;;;;;;;;;;;;23.86;59.79;96689.47;4219280;28;5616;-70
2022/09/03 12:42:25;;;;;;;;;;;;;;;23.87;59.82;96688.38;4220351;28;5631;-70
2022/09/03 12:44:32;;;;;;;;;;;;;;;23.87;59.45;96699.16;4215791;28;5814;-69
2022/09/03 12:46:34;;;;;;;;;;;;;;;23.87;59.83;96701.88;4202816;28;5863;-69
2022/09/03 12:48:37;;;;;;;;;;;;;;;23.88;59.61;96706.16;4184983;28;5649;-69
2022/09/03 12:50:49;;;;;;;;;;;;;;;23.85;59.49;96704.03;4202755;28;6410;-70
2022/09/03 12:53:01;;;;;;;;;;;;;;;23.81;59.46;96701.91;4196186;28;5881;-70
2022/09/03 12:55:08;;;;;;;;;;;;;;;23.83;59.27;96706.22;4202743;28;5710;-71
2022/09/03 12:57:14;;;;;;;;;;;;;;;23.83;59.28;96698.13;4203340;28;5630;-70
2022/09/03 12:59:19;;;;;;;;;;;;;;;23.85;59.44;96706.75;4202916;28;5638;-70
2022/09/03 13:01:30;;;;;;;;;;;;;;;23.88;59.54;96706.16;4192953;28;5659;-70
2022/09/03 13:03:44;;;;;;;;;;;;;;;23.87;59.22;96705.38;4202517;28;6457;-70
2022/09/03 13:05:51;;;;;;;;;;;;;;;23.89;59.19;96713.19;4202501;28;5631;-71
2022/09/03 13:07:59;;;;;;;;;;;;;;;23.88;59.17;96700.78;4202793;28;5739;-70
2022/09/03 13:10:05;;;;;;;;;;;;;;;23.88;59.13;96695.38;4202499;28;5672;-71
2022/09/03 13:12:21;;;;;;;;;;;;;;;23.91;59.20;96700.25;4186920;28;5888;-70
2022/09/03 13:14:25;;;;;;;;;;;;;;;23.96;58.74;96697.50;4202616;28;5120;-70
2022/09/03 13:17:00;;;;;;;;;;;;;;;24.00;59.05;96712.03;4202566;28;5632;-70
2022/09/03 13:19:08;;;;;;;;;;;;;;;24.00;58.59;96701.22;4202804;28;5740;-70
2022/09/03 13:21:19;;;;;;;;;;;;;;;23.98;58.50;96696.13;4202507;28;6285;-69
2022/09/03 13:23:46;;;;;;;;;;;;;;;23.99;58.44;96686.91;4202551;28;5707;-68
2022/09/03 13:26:01;;;;;;;;;;;;;;;24.02;58.79;96685.56;4199446;28;6303;-68
2022/09/03 13:28:23;;;;;;;;;;;;;;;24.05;58.81;96680.41;4202702;28;5060;-69
2022/09/03 13:30:33;;;;;;;;;;;;;;;24.06;58.18;96673.91;4201991;28;5656;-68
2022/09/03 13:32:44;;;;;;;;;;;;;;;24.08;58.30;96679.03;4201701;28;5644;-70
2022/09/03 13:34:54;;;;;;;;;;;;;;;24.09;58.73;96675.25;4201507;28;5655;-70
2022/09/03 13:37:08;;;;;;;;;;;;;;;24.07;58.67;96677.44;4202212;28;5771;-69
2022/09/03 13:39:23;;;;;;;;;;;;;;;24.08;58.65;96669.03;4202468;28;5786;-70
2022/09/03 13:41:35;;;;;;;;;;;;;;;24.12;58.31;96671.97;4202216;28;5754;-70
2022/09/03 13:43:43;;;;;;;;;;;;;;;24.15;58.38;96666.03;4202195;28;5767;-70
2022/09/03 13:45:52;;;;;;;;;;;;;;;24.17;58.49;96665.75;4201653;28;5710;-70
2022/09/03 13:50:27;;;;;;;;;;;;;;;24.19;58.64;96664.38;4202516;28;5802;-70
2022/09/03 13:52:41;;;;;;;;;;;;;;;24.20;58.53;96657.88;4201722;28;5739;-71
2022/09/03 13:54:50;;;;;;;;;;;;;;;24.22;58.40;96652.97;4202339;28;5970;-70
2022/09/03 13:56:59;;;;;;;;;;;;;;;24.22;58.30;96650.28;4202151;28;5822;-70
2022/09/03 13:59:10;;;;;;;;;;;;;;;24.24;58.65;96650.03;4201967;28;5759;-69
2022/09/03 14:01:22;;;;;;;;;;;;;;;24.24;58.36;96653.53;4201528;28;5822;-70
2022/09/03 14:03:33;;;;;;;;;;;;;;;24.28;58.63;96657.25;4201664;28;5756;-70
2022/09/03 14:06:01;;;;;;;;;;;;;;;24.31;58.44;96656.72;4201850;28;5755;-70
2022/09/03 14:08:18;;;;;;;;;;;;;;;24.32;58.20;96655.63;4201977;28;5845;-69
2022/09/03 14:10:24;;;;;;;;;;;;;;;24.34;58.36;96660.75;4201246;28;6413;-69
2022/09/03 14:12:31;;;;;;;;;;;;;;;24.33;58.66;96657.25;4206379;28;5618;-69
2022/09/03 14:14:50;;;;;;;;;;;;;;;24.34;58.59;96655.34;4205758;28;5838;-69
2022/09/03 14:16:59;;;;;;;;;;;;;;;24.32;58.32;96646.72;4183646;28;5749;-70
2022/09/03 14:19:07;;;;;;;;;;;;;;;24.32;58.73;96639.41;4184014;28;5732;-70
2022/09/03 14:21:19;;;;;;;;;;;;;;;24.34;58.40;96637.22;4201738;28;5643;-70
2022/09/03 14:23:33;;;;;;;;;;;;;;;24.34;58.44;96629.13;4201540;28;5643;-70
2022/09/03 14:25:35;;;;;;;;;;;;;;;24.35;58.54;96633.47;4201607;28;5628;-69
2022/09/03 14:27:38;;;;;;;;;;;;;;;24.37;58.45;96636.69;4201394;28;5640;-72
2022/09/03 14:29:52;;;;;;;;;;;;;;;24.41;58.66;96636.09;4201443;28;5631;-70
2022/09/03 14:32:24;;;;;;;;;;;;;;;24.42;58.59;96640.41;4200974;28;5753;-69
2022/09/03 14:34:38;;;;;;;;;;;;;;;24.44;58.24;96638.22;4201447;28;5624;-71
2022/09/03 14:36:52;;;;;;;;;;;;;;;24.41;58.62;96636.09;4183437;28;5658;-70
2022/09/03 14:39:12;;;;;;;;;;;;;;;24.38;58.78;96632.91;4201347;28;5724;-72
2022/09/03 14:41:37;;;;;;;;;;;;;;;24.41;58.40;96633.41;4183484;28;5658;-69
2022/09/03 14:44:10;;;;;;;;;;;;;;;24.41;58.53;96628.00;4201199;28;5783;-70
2022/09/03 14:46:23;;;;;;;;;;;;;;;24.42;58.50;96625.00;4183793;28;5732;-70
2022/09/03 14:48:54;;;;;;;;;;;;;;;24.43;58.63;96615.81;4184133;28;5623;-70
2022/09/03 14:51:15;;;;;;;;;;;;;;;24.43;58.41;96621.22;4184674;28;5681;-70
2022/09/03 14:53:48;;;;;;;;;;;;;;;24.43;58.63;96610.41;4214703;28;5718;-70
2022/09/03 14:56:33;;;;;;;;;;;;;;;24.44;58.45;96616.63;4217577;28;6355;-69
2022/09/03 14:58:53;;;;;;;;;;;;;;;24.44;58.73;96608.50;4195727;28;5746;-69
2022/09/03 15:01:04;;;;;;;;;;;;;;;24.45;58.46;96624.44;4217304;28;5737;-68
2022/09/03 15:03:26;;;;;;;;;;;;;;;24.46;58.32;96622.53;4215472;28;5813;-69
2022/09/03 15:05:44;;;;;;;;;;;;;;;24.45;58.70;96619.03;4217568;28;5702;-69
2022/09/03 15:07:52;;;;;;;;;;;;;;;24.46;58.79;96633.34;4217753;28;5710;-70
2022/09/03 15:10:03;;;;;;;;;;;;;;;24.48;58.46;96631.19;4217753;28;5709;-70
2022/09/03 15:12:18;;;;;;;;;;;;;;;24.46;58.66;96638.75;4196134;28;5631;-70
2022/09/03 15:14:29;;;;;;;;;;;;;;;24.44;58.28;96639.03;4189905;28;5757;-72
2022/09/03 15:16:44;;;;;;;;;;;;;;;24.44;58.15;96640.94;4184248;28;5847;-71
2022/09/03 15:19:00;;;;;;;;;;;;;;;24.43;58.34;96639.31;4183822;28;5749;-69
2022/09/03 15:21:19;;;;;;;;;;;;;;;24.44;58.39;96636.34;4184228;28;5862;-70
2022/09/03 15:23:43;;;;;;;;;;;;;;;24.45;58.49;96639.84;4183821;28;5071;-71
2022/09/03 15:26:10;;;;;;;;;;;;;;;24.45;58.39;96629.84;4183891;28;5775;-71
2022/09/03 15:28:22;;;;;;;;;;;;;;;24.46;58.50;96627.94;4183774;28;5816;-71
2022/09/03 15:30:35;;;;;;;;;;;;;;;24.45;58.67;96634.44;4183248;28;5764;-70
2022/09/03 15:32:51;;;;;;;;;;;;;;;24.44;58.59;96625.53;4183260;28;5773;-70
2022/09/03 15:35:05;;;;;;;;;;;;;;;24.45;58.42;96629.03;4184393;28;5074;-70
2022/09/03 15:37:13;;;;;;;;;;;;;;;24.46;58.51;96625.25;4183611;28;5686;-70
2022/09/03 15:39:21;;;;;;;;;;;;;;;24.48;58.11;96623.09;4184085;28;5654;-70